createdAt,value
2018-09-10T00:00:11.313Z,1010.43
2018-09-10T00:01:11.414Z,1010.43
2018-09-10T00:02:11.578Z,1010.45
2018-09-10T00:03:11.782Z,1010.45
2018-09-10T00:04:12.015Z,1010.46
2018-09-10T00:05:12.228Z,1010.48
2018-09-10T00:06:12.426Z,1010.47
2018-09-10T00:07:12.641Z,1010.47
2018-09-10T00:08:12.837Z,1010.48
2018-09-10T00:09:13.264Z,1010.48
2018-09-10T00:10:14.248Z,1010.47
2018-09-10T00:11:13.887Z,1010.47
2018-09-10T00:12:14.154Z,1010.46
2018-09-10T00:13:14.300Z,1010.49
2018-09-10T00:14:14.453Z,1010.48
2018-09-10T00:15:14.994Z,1010.48
2018-09-10T00:16:14.646Z,1010.48
2018-09-10T00:17:14.850Z,1010.48
2018-09-10T00:18:15.164Z,1010.48
2018-09-10T00:19:15.419Z,1010.49
2018-09-10T00:20:15.956Z,1010.51
2018-09-10T00:21:15.636Z,1010.49
2018-09-10T00:22:15.864Z,1010.51
2018-09-10T00:23:15.976Z,1010.52
2018-09-10T00:24:16.288Z,1010.53
2018-09-10T00:25:16.702Z,1010.54
2018-09-10T00:26:16.853Z,1010.51
2018-09-10T00:27:17.110Z,1010.52
2018-09-10T00:28:17.283Z,1010.51
2018-09-10T00:29:17.395Z,1010.52
2018-09-10T00:30:17.982Z,1010.54
2018-09-10T00:31:17.596Z,1010.54
2018-09-10T00:32:18.101Z,1010.54
2018-09-10T00:33:17.826Z,1010.53
2018-09-10T00:34:18.311Z,1010.52
2018-09-10T00:35:19.141Z,1010.51
2018-09-10T00:36:19.762Z,1010.49
2018-09-10T00:37:19.568Z,1010.49
2018-09-10T00:39:20.187Z,1010.51
2018-09-10T00:40:20.301Z,1010.48
2018-09-10T00:41:20.406Z,1010.47
2018-09-10T00:42:20.416Z,1010.47
2018-09-10T00:43:20.529Z,1010.45
2018-09-10T00:44:20.534Z,1010.42
2018-09-10T00:45:20.634Z,1010.41
2018-09-10T00:46:20.741Z,1010.41
2018-09-10T00:47:20.749Z,1010.41
2018-09-10T00:48:20.868Z,1010.43
2018-09-10T00:49:20.971Z,1010.43
2018-09-10T00:50:21.080Z,1010.43
2018-09-10T00:51:21.190Z,1010.45
2018-09-10T00:52:21.191Z,1010.47
2018-09-10T00:53:21.005Z,1010.49
2018-09-10T00:54:21.408Z,1010.51
2018-09-10T00:55:21.520Z,1010.53
2018-09-10T00:56:21.730Z,1010.55
2018-09-10T00:57:22.039Z,1010.55
2018-09-10T00:58:22.129Z,1010.56
2018-09-10T00:59:22.231Z,1010.56
2018-09-10T01:00:22.231Z,1010.58
2018-09-10T01:01:22.266Z,1010.58
2018-09-10T01:02:22.248Z,1010.59
2018-09-10T01:03:22.712Z,1010.59
2018-09-10T01:04:23.051Z,1010.59
2018-09-10T01:05:23.734Z,1010.58
2018-09-10T01:06:23.735Z,1010.58
2018-09-10T01:07:24.025Z,1010.57
2018-09-10T01:08:24.350Z,1010.57
2018-09-10T01:09:24.510Z,1010.58
2018-09-10T01:10:24.717Z,1010.60
2018-09-10T01:11:24.940Z,1010.60
2018-09-10T01:12:25.193Z,1010.63
2018-09-10T01:13:25.359Z,1010.62
2018-09-10T01:14:25.558Z,1010.60
2018-09-10T01:15:25.774Z,1010.62
2018-09-10T01:16:26.118Z,1010.62
2018-09-10T01:17:26.298Z,1010.61
2018-09-10T01:18:26.516Z,1010.61
2018-09-10T01:19:26.737Z,1010.60
2018-09-10T01:20:26.936Z,1010.58
2018-09-10T01:21:27.054Z,1010.56
2018-09-10T01:22:27.295Z,1010.57
2018-09-10T01:23:27.434Z,1010.58
2018-09-10T01:24:27.646Z,1010.57
2018-09-10T01:25:27.789Z,1010.58
2018-09-10T01:26:28.029Z,1010.60
2018-09-10T01:27:28.367Z,1010.61
2018-09-10T01:28:28.666Z,1010.61
2018-09-10T01:29:28.857Z,1010.61
2018-09-10T01:30:29.063Z,1010.60
2018-09-10T01:31:29.258Z,1010.60
2018-09-10T01:32:29.487Z,1010.59
2018-09-10T01:33:30.831Z,1010.57
2018-09-10T01:34:30.062Z,1010.56
2018-09-10T01:35:30.223Z,1010.56
2018-09-10T01:36:30.440Z,1010.56
2018-09-10T01:37:30.586Z,1010.55
2018-09-10T01:38:30.757Z,1010.55
2018-09-10T01:39:31.000Z,1010.55
2018-09-10T01:40:31.163Z,1010.54
2018-09-10T01:41:31.391Z,1010.53
2018-09-10T01:42:31.586Z,1010.52
2018-09-10T01:43:31.984Z,1010.52
2018-09-10T01:44:32.216Z,1010.52
2018-09-10T01:45:32.499Z,1010.52
2018-09-10T01:46:32.628Z,1010.54
2018-09-10T01:47:32.906Z,1010.55
2018-09-10T01:48:33.625Z,1010.58
2018-09-10T01:49:33.954Z,1010.59
2018-09-10T01:50:34.370Z,1010.61
2018-09-10T01:51:34.695Z,1010.62
2018-09-10T01:52:35.306Z,1010.63
2018-09-10T01:53:35.324Z,1010.62
2018-09-10T01:54:35.422Z,1010.61
2018-09-10T01:55:35.536Z,1010.60
2018-09-10T01:56:35.537Z,1010.60
2018-09-10T01:57:35.646Z,1010.58
2018-09-10T01:59:35.780Z,1010.57
2018-09-10T02:00:35.871Z,1010.56
2018-09-10T02:01:35.981Z,1010.57
2018-09-10T02:02:36.110Z,1010.54
2018-09-10T02:03:36.209Z,1010.54
2018-09-10T02:04:36.161Z,1010.55
2018-09-10T02:05:36.270Z,1010.59
2018-09-10T02:06:36.529Z,1010.61
2018-09-10T02:07:36.837Z,1010.64
2018-09-10T02:08:37.045Z,1010.65
2018-09-10T02:09:37.233Z,1010.66
2018-09-10T02:10:37.228Z,1010.66
2018-09-10T02:11:37.566Z,1010.67
2018-09-10T02:12:37.911Z,1010.72
2018-09-10T02:13:38.310Z,1010.76
2018-09-10T02:14:38.949Z,1010.72
2018-09-10T02:15:38.938Z,1010.66
2018-09-10T02:16:39.139Z,1010.62
2018-09-10T02:17:39.369Z,1010.59
2018-09-10T02:18:39.635Z,1010.60
2018-09-10T02:19:39.755Z,1010.59
2018-09-10T02:20:39.965Z,1010.66
2018-09-10T02:21:40.132Z,1010.60
2018-09-10T02:22:40.371Z,1010.53
2018-09-10T02:23:40.608Z,1010.63
2018-09-10T02:24:40.790Z,1010.63
2018-09-10T02:25:40.970Z,1010.60
2018-09-10T02:26:41.188Z,1010.70
2018-09-10T02:27:41.417Z,1010.64
2018-09-10T02:28:41.728Z,1010.63
2018-09-10T02:29:42.049Z,1010.72
2018-09-10T02:30:42.247Z,1010.66
2018-09-10T02:31:42.509Z,1010.70
2018-09-10T02:32:42.794Z,1010.70
2018-09-10T02:33:43.036Z,1010.69
2018-09-10T02:34:43.205Z,1010.73
2018-09-10T02:35:43.448Z,1010.76
2018-09-10T02:36:43.682Z,1010.77
2018-09-10T02:37:43.808Z,1010.71
2018-09-10T02:38:44.047Z,1010.72
2018-09-10T02:39:44.191Z,1010.72
2018-09-10T02:40:44.534Z,1010.71
2018-09-10T02:41:44.820Z,1010.70
2018-09-10T02:42:44.988Z,1010.74
2018-09-10T02:43:45.382Z,1010.73
2018-09-10T02:44:45.795Z,1010.78
2018-09-10T02:45:46.038Z,1010.69
2018-09-10T02:46:46.404Z,1010.70
2018-09-10T02:47:46.552Z,1010.71
2018-09-10T02:48:46.782Z,1010.75
2018-09-10T02:49:46.980Z,1010.73
2018-09-10T02:50:47.090Z,1010.79
2018-09-10T02:51:47.208Z,1010.75
2018-09-10T02:52:47.402Z,1010.79
2018-09-10T02:53:47.673Z,1010.79
2018-09-10T02:54:48.110Z,1010.78
2018-09-10T02:55:49.024Z,1010.80
2018-09-10T02:56:49.559Z,1010.83
2018-09-10T02:57:49.565Z,1010.83
2018-09-10T02:58:49.373Z,1010.81
2018-09-10T02:59:49.836Z,1010.81
2018-09-10T03:00:50.190Z,1010.81
2018-09-10T03:01:50.820Z,1010.81
2018-09-10T03:02:50.762Z,1010.78
2018-09-10T03:03:51.153Z,1010.77
2018-09-10T03:04:51.342Z,1010.87
2018-09-10T03:05:51.559Z,1010.81
2018-09-10T03:06:51.767Z,1010.84
2018-09-10T03:07:52.077Z,1010.83
2018-09-10T03:08:52.157Z,1010.83
2018-09-10T03:09:52.024Z,1010.88
2018-09-10T03:10:52.457Z,1010.92
2018-09-10T03:11:52.816Z,1010.98
2018-09-10T03:12:53.239Z,1010.98
2018-09-10T03:13:53.640Z,1010.96
2018-09-10T03:14:54.063Z,1010.94
2018-09-10T03:15:54.568Z,1010.91
2018-09-10T03:16:54.688Z,1010.84
2018-09-10T03:17:54.833Z,1010.98
2018-09-10T03:18:54.941Z,1010.86
2018-09-10T03:19:55.068Z,1010.91
2018-09-10T03:20:55.205Z,1010.84
2018-09-10T03:21:55.334Z,1010.89
2018-09-10T03:22:55.550Z,1010.93
2018-09-10T03:23:55.833Z,1010.83
2018-09-10T03:25:56.048Z,1010.81
2018-09-10T03:26:56.267Z,1010.76
2018-09-10T03:27:56.458Z,1010.74
2018-09-10T03:28:56.682Z,1010.76
2018-09-10T03:29:56.891Z,1010.71
2018-09-10T03:30:57.090Z,1010.69
2018-09-10T03:31:57.283Z,1010.72
2018-09-10T03:32:57.496Z,1010.70
2018-09-10T03:33:57.735Z,1010.66
2018-09-10T03:34:57.860Z,1010.68
2018-09-10T03:35:58.048Z,1010.69
2018-09-10T03:36:58.274Z,1010.58
2018-09-10T03:37:58.380Z,1010.66
2018-09-10T03:38:58.787Z,1010.64
2018-09-10T03:39:58.969Z,1010.70
2018-09-10T03:40:59.362Z,1010.72
2018-09-10T03:41:59.496Z,1010.60
2018-09-10T03:42:59.707Z,1010.61
2018-09-10T03:44:00.034Z,1010.60
2018-09-10T03:45:00.229Z,1010.61
2018-09-10T03:46:00.481Z,1010.63
2018-09-10T03:47:00.606Z,1010.65
2018-09-10T03:48:00.765Z,1010.63
2018-09-10T03:49:00.880Z,1010.63
2018-09-10T03:50:01.090Z,1010.67
2018-09-10T03:51:01.294Z,1010.55
2018-09-10T03:52:01.671Z,1010.58
2018-09-10T03:53:01.955Z,1010.68
2018-09-10T03:54:02.233Z,1010.76
2018-09-10T03:55:02.627Z,1010.72
2018-09-10T03:56:03.145Z,1010.65
2018-09-10T03:57:03.151Z,1010.70
2018-09-10T03:58:03.260Z,1010.59
2018-09-10T03:59:02.956Z,1010.61
2018-09-10T04:00:03.992Z,1010.61
2018-09-10T04:01:04.100Z,1010.66
2018-09-10T04:02:04.208Z,1010.65
2018-09-10T04:03:04.339Z,1010.60
2018-09-10T04:04:04.428Z,1010.59
2018-09-10T04:05:04.340Z,1010.64
2018-09-10T04:06:04.702Z,1010.62
2018-09-10T04:07:04.925Z,1010.63
2018-09-10T04:08:05.491Z,1010.64
2018-09-10T04:09:05.223Z,1010.64
2018-09-10T04:10:05.488Z,1010.61
2018-09-10T04:11:05.907Z,1010.63
2018-09-10T04:12:06.222Z,1010.66
2018-09-10T04:13:06.736Z,1010.64
2018-09-10T04:14:06.747Z,1010.54
2018-09-10T04:15:06.354Z,1010.61
2018-09-10T04:16:06.859Z,1010.60
2018-09-10T04:17:06.739Z,1010.60
2018-09-10T04:18:06.861Z,1010.56
2018-09-10T04:19:07.069Z,1010.52
2018-09-10T04:20:07.189Z,1010.49
2018-09-10T04:21:07.193Z,1010.52
2018-09-10T04:22:07.191Z,1010.53
2018-09-10T04:23:07.560Z,1010.54
2018-09-10T04:24:07.940Z,1010.54
2018-09-10T04:25:08.572Z,1010.51
2018-09-10T04:26:08.967Z,1010.57
2018-09-10T04:27:08.848Z,1010.59
2018-09-10T04:28:08.969Z,1010.57
2018-09-10T04:29:09.161Z,1010.59
2018-09-10T04:30:09.294Z,1010.60
2018-09-10T04:31:09.399Z,1010.61
2018-09-10T04:32:09.689Z,1010.66
2018-09-10T04:33:09.950Z,1010.69
2018-09-10T04:34:10.104Z,1010.67
2018-09-10T04:35:10.201Z,1010.68
2018-09-10T04:36:10.466Z,1010.73
2018-09-10T04:37:10.623Z,1010.80
2018-09-10T04:38:10.834Z,1010.76
2018-09-10T04:39:10.961Z,1010.76
2018-09-10T04:40:11.211Z,1010.71
2018-09-10T04:41:11.354Z,1010.67
2018-09-10T04:42:11.607Z,1010.75
2018-09-10T04:43:11.801Z,1010.73
2018-09-10T04:44:12.143Z,1010.74
2018-09-10T04:45:12.315Z,1010.79
2018-09-10T04:46:12.518Z,1010.72
2018-09-10T04:47:12.738Z,1010.72
2018-09-10T04:48:12.965Z,1010.72
2018-09-10T04:49:13.163Z,1010.75
2018-09-10T04:50:13.295Z,1010.66
2018-09-10T04:51:13.540Z,1010.66
2018-09-10T04:52:13.686Z,1010.73
2018-09-10T04:53:14.010Z,1010.66
2018-09-10T04:54:14.207Z,1010.67
2018-09-10T04:55:14.902Z,1010.70
2018-09-10T04:56:14.655Z,1010.71
2018-09-10T04:58:14.955Z,1010.69
2018-09-10T04:59:14.932Z,1010.70
2018-09-10T05:00:15.283Z,1010.74
2018-09-10T05:01:15.424Z,1010.79
2018-09-10T05:02:15.603Z,1010.69
2018-09-10T05:03:15.836Z,1010.74
2018-09-10T05:04:16.112Z,1010.85
2018-09-10T05:05:16.563Z,1010.86
2018-09-10T05:06:16.740Z,1010.80
2018-09-10T05:07:16.953Z,1010.87
2018-09-10T05:08:17.165Z,1010.88
2018-09-10T05:09:17.367Z,1010.89
2018-09-10T05:10:17.595Z,1010.89
2018-09-10T05:11:17.850Z,1010.97
2018-09-10T05:12:18.283Z,1010.94
2018-09-10T05:13:19.001Z,1011.04
2018-09-10T05:14:19.527Z,1011.11
2018-09-10T05:15:19.337Z,1011.04
2018-09-10T05:16:19.851Z,1011.06
2018-09-10T05:17:19.759Z,1011.07
2018-09-10T05:18:20.068Z,1011.08
2018-09-10T05:19:20.480Z,1011.08
2018-09-10T05:20:20.910Z,1011.09
2018-09-10T05:21:21.211Z,1011.07
2018-09-10T05:22:21.416Z,1011.06
2018-09-10T05:23:21.934Z,1011.08
2018-09-10T05:24:21.845Z,1011.14
2018-09-10T05:25:22.151Z,1011.18
2018-09-10T05:26:22.236Z,1011.28
2018-09-10T05:27:22.243Z,1011.26
2018-09-10T05:28:22.241Z,1011.28
2018-09-10T05:29:22.579Z,1011.28
2018-09-10T05:30:23.018Z,1011.34
2018-09-10T05:31:23.423Z,1011.28
2018-09-10T05:32:23.931Z,1011.28
2018-09-10T05:33:23.920Z,1011.27
2018-09-10T05:34:24.172Z,1011.25
2018-09-10T05:35:24.549Z,1011.23
2018-09-10T05:36:24.658Z,1011.22
2018-09-10T05:37:24.832Z,1011.21
2018-09-10T05:38:25.031Z,1011.19
2018-09-10T05:39:25.252Z,1011.19
2018-09-10T05:40:25.516Z,1011.21
2018-09-10T05:41:25.668Z,1011.20
2018-09-10T05:42:26.059Z,1011.21
2018-09-10T05:43:26.196Z,1011.21
2018-09-10T05:44:26.503Z,1011.23
2018-09-10T05:45:26.666Z,1011.24
2018-09-10T05:46:26.827Z,1011.24
2018-09-10T05:47:27.343Z,1011.26
2018-09-10T05:48:27.464Z,1011.26
2018-09-10T05:49:27.737Z,1011.28
2018-09-10T05:50:27.902Z,1011.29
2018-09-10T05:51:28.102Z,1011.31
2018-09-10T05:52:28.210Z,1011.32
2018-09-10T05:53:28.346Z,1011.37
2018-09-10T05:54:28.517Z,1011.38
2018-09-10T05:55:28.756Z,1011.31
2018-09-10T05:56:28.947Z,1011.30
2018-09-10T05:57:29.164Z,1011.33
2018-09-10T05:58:29.370Z,1011.35
2018-09-10T05:59:29.582Z,1011.35
2018-09-10T06:00:29.851Z,1011.37
2018-09-10T06:01:30.226Z,1011.39
2018-09-10T06:02:30.426Z,1011.37
2018-09-10T06:03:30.698Z,1011.36
2018-09-10T06:04:30.842Z,1011.37
2018-09-10T06:05:31.123Z,1011.39
2018-09-10T06:06:31.259Z,1011.40
2018-09-10T06:07:31.473Z,1011.41
2018-09-10T06:08:31.836Z,1011.40
2018-09-10T06:09:31.963Z,1011.45
2018-09-10T06:10:32.136Z,1011.30
2018-09-10T06:11:32.232Z,1011.31
2018-09-10T06:12:32.608Z,1011.31
2018-09-10T06:13:32.918Z,1011.32
2018-09-10T06:14:33.539Z,1011.32
2018-09-10T06:15:33.657Z,1011.36
2018-09-10T06:16:34.079Z,1011.34
2018-09-10T06:17:34.698Z,1011.36
2018-09-10T06:18:34.594Z,1011.35
2018-09-10T06:19:34.800Z,1011.38
2018-09-10T06:20:35.017Z,1011.39
2018-09-10T06:21:35.633Z,1011.43
2018-09-10T06:22:35.434Z,1011.33
2018-09-10T06:23:35.849Z,1011.33
2018-09-10T06:25:36.019Z,1011.29
2018-09-10T06:26:36.352Z,1011.30
2018-09-10T06:28:36.897Z,1011.30
2018-09-10T06:29:36.710Z,1011.32
2018-09-10T06:30:37.019Z,1011.45
2018-09-10T06:31:36.996Z,1011.45
2018-09-10T06:32:37.132Z,1011.53
2018-09-10T06:33:37.482Z,1011.50
2018-09-10T06:34:37.868Z,1011.51
2018-09-10T06:35:38.332Z,1011.49
2018-09-10T06:36:38.869Z,1011.48
2018-09-10T06:37:38.987Z,1011.58
2018-09-10T06:38:38.865Z,1011.51
2018-09-10T06:39:39.295Z,1011.56
2018-09-10T06:40:39.647Z,1011.53
2018-09-10T06:41:39.858Z,1011.62
2018-09-10T06:42:40.687Z,1011.56
2018-09-10T06:43:40.322Z,1011.58
2018-09-10T06:44:40.526Z,1011.53
2018-09-10T06:45:40.647Z,1011.59
2018-09-10T06:46:40.849Z,1011.58
2018-09-10T06:47:41.068Z,1011.55
2018-09-10T06:48:41.155Z,1011.51
2018-09-10T06:49:41.373Z,1011.44
2018-09-10T06:50:41.830Z,1011.46
2018-09-10T06:51:42.012Z,1011.30
2018-09-10T06:52:42.213Z,1011.32
2018-09-10T06:53:42.425Z,1011.39
2018-09-10T06:54:42.552Z,1011.38
2018-09-10T06:55:42.767Z,1011.40
2018-09-10T06:56:43.023Z,1011.34
2018-09-10T06:57:43.154Z,1011.34
2018-09-10T06:58:43.453Z,1011.38
2018-09-10T06:59:43.620Z,1011.36
2018-09-10T07:00:43.818Z,1011.36
2018-09-10T07:01:44.021Z,1011.35
2018-09-10T07:02:44.135Z,1011.33
2018-09-10T07:03:44.328Z,1011.34
2018-09-10T07:04:44.547Z,1011.31
2018-09-10T07:05:44.780Z,1011.31
2018-09-10T07:06:45.137Z,1011.32
2018-09-10T07:07:45.326Z,1011.39
2018-09-10T07:08:45.492Z,1011.39
2018-09-10T07:09:45.690Z,1011.40
2018-09-10T07:10:46.003Z,1011.46
2018-09-10T07:11:46.241Z,1011.46
2018-09-10T07:12:46.481Z,1011.55
2018-09-10T07:13:46.660Z,1011.55
2018-09-10T07:14:46.784Z,1011.54
2018-09-10T07:15:46.985Z,1011.57
2018-09-10T07:16:47.187Z,1011.55
2018-09-10T07:18:47.584Z,1011.53
2018-09-10T07:19:47.620Z,1011.54
2018-09-10T07:20:47.856Z,1011.56
2018-09-10T07:21:48.633Z,1011.56
2018-09-10T07:22:48.729Z,1011.55
2018-09-10T07:23:49.144Z,1011.59
2018-09-10T07:24:49.362Z,1011.59
2018-09-10T07:25:49.887Z,1011.63
2018-09-10T07:26:49.883Z,1011.50
2018-09-10T07:27:50.301Z,1011.47
2018-09-10T07:28:50.714Z,1011.41
2018-09-10T07:29:51.027Z,1011.41
2018-09-10T07:30:51.245Z,1011.40
2018-09-10T07:31:51.564Z,1011.48
2018-09-10T07:32:51.867Z,1011.48
2018-09-10T07:33:52.099Z,1011.54
2018-09-10T07:34:52.105Z,1011.47
2018-09-10T07:35:52.172Z,1011.55
2018-09-10T07:36:52.304Z,1011.54
2018-09-10T07:37:52.529Z,1011.62
2018-09-10T07:38:52.378Z,1011.61
2018-09-10T07:39:52.939Z,1011.59
2018-09-10T07:40:52.872Z,1011.55
2018-09-10T07:41:53.346Z,1011.56
2018-09-10T07:42:53.730Z,1011.57
2018-09-10T07:43:54.148Z,1011.59
2018-09-10T07:44:54.331Z,1011.57
2018-09-10T07:45:55.665Z,1011.60
2018-09-10T07:46:54.911Z,1011.56
2018-09-10T07:47:55.077Z,1011.55
2018-09-10T07:48:55.268Z,1011.52
2018-09-10T07:49:55.396Z,1011.62
2018-09-10T07:50:55.616Z,1011.61
2018-09-10T07:51:55.808Z,1011.62
2018-09-10T07:52:56.050Z,1011.61
2018-09-10T07:53:56.242Z,1011.65
2018-09-10T07:54:56.444Z,1011.59
2018-09-10T07:55:56.684Z,1011.56
2018-09-10T07:56:56.870Z,1011.66
2018-09-10T07:57:57.085Z,1011.67
2018-09-10T07:58:57.360Z,1011.68
2018-09-10T07:59:57.488Z,1011.71
2018-09-10T08:00:57.640Z,1011.67
2018-09-10T08:01:57.862Z,1011.68
2018-09-10T08:02:58.106Z,1011.74
2018-09-10T08:03:58.260Z,1011.74
2018-09-10T08:05:58.441Z,1011.87
2018-09-10T08:06:58.907Z,1011.82
2018-09-10T08:07:59.088Z,1011.78
2018-09-10T08:08:59.313Z,1011.76
2018-09-10T08:09:59.404Z,1011.73
2018-09-10T08:10:59.654Z,1011.68
2018-09-10T08:11:59.828Z,1011.56
2018-09-10T08:12:59.948Z,1011.68
2018-09-10T08:14:00.167Z,1011.64
2018-09-10T08:15:00.361Z,1011.58
2018-09-10T08:16:00.590Z,1011.64
2018-09-10T08:17:00.702Z,1011.63
2018-09-10T08:18:00.932Z,1011.65
2018-09-10T08:19:01.112Z,1011.63
2018-09-10T08:20:01.589Z,1011.60
2018-09-10T08:21:02.109Z,1011.54
2018-09-10T08:22:01.766Z,1011.58
2018-09-10T08:23:02.177Z,1011.61
2018-09-10T08:24:02.673Z,1011.60
2018-09-10T08:25:03.842Z,1011.60
2018-09-10T08:26:03.275Z,1011.66
2018-09-10T08:27:04.005Z,1011.65
2018-09-10T08:28:04.207Z,1011.66
2018-09-10T08:29:04.625Z,1011.65
2018-09-10T08:30:05.243Z,1011.62
2018-09-10T08:31:05.256Z,1011.66
2018-09-10T08:32:05.369Z,1011.54
2018-09-10T08:33:05.369Z,1011.61
2018-09-10T08:34:05.682Z,1011.63
2018-09-10T08:35:06.094Z,1011.62
2018-09-10T08:36:06.612Z,1011.50
2018-09-10T08:37:06.321Z,1011.61
2018-09-10T08:38:06.939Z,1011.53
2018-09-10T08:39:06.839Z,1011.53
2018-09-10T08:40:07.122Z,1011.53
2018-09-10T08:41:07.178Z,1011.50
2018-09-10T08:42:07.280Z,1011.55
2018-09-10T08:43:07.337Z,1011.55
2018-09-10T08:44:07.335Z,1011.68
2018-09-10T08:45:07.791Z,1011.65
2018-09-10T08:46:07.920Z,1011.59
2018-09-10T08:47:08.050Z,1011.75
2018-09-10T08:48:08.161Z,1011.71
2018-09-10T08:49:08.728Z,1011.75
2018-09-10T08:50:08.741Z,1011.68
2018-09-10T08:51:09.483Z,1011.66
2018-09-10T08:52:08.940Z,1011.67
2018-09-10T08:53:09.090Z,1011.69
2018-09-10T08:54:09.278Z,1011.66
2018-09-10T08:55:09.627Z,1011.63
2018-09-10T08:56:10.053Z,1011.62
2018-09-10T08:57:09.868Z,1011.70
2018-09-10T08:58:10.001Z,1011.74
2018-09-10T08:59:10.170Z,1011.70
2018-09-10T09:00:10.464Z,1011.70
2018-09-10T09:01:10.711Z,1011.70
2018-09-10T09:02:10.997Z,1011.64
2018-09-10T09:03:11.138Z,1011.60
2018-09-10T09:05:11.342Z,1011.56
2018-09-10T09:06:11.655Z,1011.59
2018-09-10T09:07:11.905Z,1011.63
2018-09-10T09:08:12.098Z,1011.62
2018-09-10T09:09:12.289Z,1011.59
2018-09-10T09:10:12.473Z,1011.52
2018-09-10T09:11:12.616Z,1011.54
2018-09-10T09:12:12.852Z,1011.52
2018-09-10T09:13:13.037Z,1011.62
2018-09-10T09:14:13.311Z,1011.48
2018-09-10T09:15:13.724Z,1011.51
2018-09-10T09:16:13.835Z,1011.52
2018-09-10T09:17:13.999Z,1011.53
2018-09-10T09:18:14.201Z,1011.49
2018-09-10T09:19:14.414Z,1011.47
2018-09-10T09:20:14.882Z,1011.44
2018-09-10T09:21:15.097Z,1011.41
2018-09-10T09:22:15.243Z,1011.42
2018-09-10T09:23:15.531Z,1011.37
2018-09-10T09:24:15.583Z,1011.39
2018-09-10T09:25:15.998Z,1011.39
2018-09-10T09:26:16.130Z,1011.46
2018-09-10T09:27:16.295Z,1011.57
2018-09-10T09:28:16.508Z,1011.59
2018-09-10T09:29:16.836Z,1011.65
2018-09-10T09:30:17.533Z,1011.55
2018-09-10T09:31:17.067Z,1011.58
2018-09-10T09:32:17.269Z,1011.61
2018-09-10T09:33:17.638Z,1011.54
2018-09-10T09:34:17.774Z,1011.62
2018-09-10T09:35:18.366Z,1011.49
2018-09-10T09:36:18.876Z,1011.63
2018-09-10T09:37:19.096Z,1011.56
2018-09-10T09:38:19.313Z,1011.55
2018-09-10T09:39:19.799Z,1011.64
2018-09-10T09:40:20.342Z,1011.64
2018-09-10T09:41:21.273Z,1011.58
2018-09-10T09:42:20.778Z,1011.66
2018-09-10T09:43:20.935Z,1011.63
2018-09-10T09:44:20.986Z,1011.71
2018-09-10T09:45:20.961Z,1011.63
2018-09-10T09:46:21.409Z,1011.64
2018-09-10T09:47:21.834Z,1011.68
2018-09-10T09:48:22.011Z,1011.67
2018-09-10T09:49:22.198Z,1011.75
2018-09-10T09:50:22.238Z,1011.73
2018-09-10T09:51:22.256Z,1011.72
2018-09-10T09:52:22.252Z,1011.68
2018-09-10T09:53:22.584Z,1011.63
2018-09-10T09:54:22.958Z,1011.64
2018-09-10T09:55:23.409Z,1011.62
2018-09-10T09:56:23.985Z,1011.64
2018-09-10T09:57:24.004Z,1011.52
2018-09-10T09:58:24.014Z,1011.56
2018-09-10T09:59:24.030Z,1011.51
2018-09-10T10:00:23.944Z,1011.48
2018-09-10T10:01:24.269Z,1011.44
2018-09-10T10:02:24.564Z,1011.48
2018-09-10T10:03:24.721Z,1011.48
2018-09-10T10:04:25.185Z,1011.47
2018-09-10T10:05:25.354Z,1011.50
2018-09-10T10:06:25.599Z,1011.51
2018-09-10T10:07:25.883Z,1011.54
2018-09-10T10:08:26.159Z,1011.55
2018-09-10T10:09:26.281Z,1011.51
2018-09-10T10:10:26.519Z,1011.53
2018-09-10T10:11:26.718Z,1011.51
2018-09-10T10:12:27.105Z,1011.48
2018-09-10T10:13:27.130Z,1011.48
2018-09-10T10:14:27.260Z,1011.44
2018-09-10T10:15:27.465Z,1011.44
2018-09-10T10:16:27.765Z,1011.40
2018-09-10T10:17:27.944Z,1011.38
2018-09-10T10:18:28.113Z,1011.28
2018-09-10T10:19:28.325Z,1011.31
2018-09-10T10:20:28.527Z,1011.35
2018-09-10T10:21:28.771Z,1011.37
2018-09-10T10:22:28.929Z,1011.41
2018-09-10T10:23:29.086Z,1011.40
2018-09-10T10:24:29.267Z,1011.46
2018-09-10T10:25:29.491Z,1011.37
2018-09-10T10:26:29.595Z,1011.42
2018-09-10T10:27:29.852Z,1011.31
2018-09-10T10:28:29.997Z,1011.35
2018-09-10T10:29:30.214Z,1011.34
2018-09-10T10:30:30.451Z,1011.29
2018-09-10T10:31:30.604Z,1011.23
2018-09-10T10:32:30.769Z,1011.27
2018-09-10T10:33:30.971Z,1011.31
2018-09-10T10:34:31.075Z,1011.30
2018-09-10T10:35:31.286Z,1011.27
2018-09-10T10:36:32.688Z,1011.26
2018-09-10T10:37:31.978Z,1011.26
2018-09-10T10:38:32.313Z,1011.26
2018-09-10T10:39:32.429Z,1011.20
2018-09-10T10:40:32.794Z,1011.25
2018-09-10T10:41:33.235Z,1011.07
2018-09-10T10:42:34.279Z,1011.15
2018-09-10T10:43:34.380Z,1011.15
2018-09-10T10:44:34.078Z,1011.15
2018-09-10T10:45:34.599Z,1011.16
2018-09-10T10:46:34.537Z,1011.20
2018-09-10T10:47:35.251Z,1011.21
2018-09-10T10:48:35.140Z,1011.20
2018-09-10T10:49:34.829Z,1011.20
2018-09-10T10:50:35.241Z,1011.05
2018-09-10T10:51:35.861Z,1011.04
2018-09-10T10:52:35.975Z,1011.03
2018-09-10T10:53:35.873Z,1011.01
2018-09-10T10:54:36.292Z,1010.98
2018-09-10T10:55:36.811Z,1011.02
2018-09-10T10:56:36.715Z,1011.12
2018-09-10T10:57:36.913Z,1011.12
2018-09-10T10:58:37.131Z,1011.18
2018-09-10T10:59:37.216Z,1011.15
2018-09-10T11:00:37.343Z,1011.18
2018-09-10T11:01:37.431Z,1011.11
2018-09-10T11:02:37.510Z,1011.20
2018-09-10T11:03:37.382Z,1011.17
2018-09-10T11:04:37.723Z,1011.13
2018-09-10T11:05:40.409Z,1011.12
2018-09-10T11:06:38.724Z,1011.14
2018-09-10T11:07:38.697Z,1011.07
2018-09-10T11:08:39.319Z,1011.07
2018-09-10T11:09:39.376Z,1010.99
2018-09-10T11:10:40.349Z,1011.01
2018-09-10T11:11:39.708Z,1011.03
2018-09-10T11:12:39.927Z,1010.97
2018-09-10T11:13:40.150Z,1011.00
2018-09-10T11:14:40.372Z,1010.95
2018-09-10T11:15:40.565Z,1010.93
2018-09-10T11:16:40.849Z,1010.93
2018-09-10T11:17:40.977Z,1010.86
2018-09-10T11:18:41.247Z,1010.92
2018-09-10T11:19:41.401Z,1010.87
2018-09-10T11:20:41.611Z,1010.88
2018-09-10T11:21:42.074Z,1010.85
2018-09-10T11:22:42.208Z,1010.91
2018-09-10T11:23:42.380Z,1010.83
2018-09-10T11:24:42.560Z,1010.81
2018-09-10T11:25:42.771Z,1010.84
2018-09-10T11:26:43.156Z,1010.82
2018-09-10T11:27:43.408Z,1010.82
2018-09-10T11:28:43.709Z,1010.80
2018-09-10T11:29:43.933Z,1010.80
2018-09-10T11:30:44.134Z,1010.87
2018-09-10T11:31:44.507Z,1010.80
2018-09-10T11:32:44.799Z,1010.73
2018-09-10T11:33:44.923Z,1010.68
2018-09-10T11:34:45.124Z,1010.69
2018-09-10T11:35:45.308Z,1010.69
2018-09-10T11:36:45.517Z,1010.67
2018-09-10T11:37:45.777Z,1010.67
2018-09-10T11:38:45.943Z,1010.68
2018-09-10T11:39:46.189Z,1010.60
2018-09-10T11:40:46.345Z,1010.62
2018-09-10T11:41:46.581Z,1010.69
2018-09-10T11:42:46.756Z,1010.64
2018-09-10T11:43:46.878Z,1010.57
2018-09-10T11:44:47.024Z,1010.59
2018-09-10T11:45:47.161Z,1010.68
2018-09-10T11:46:47.433Z,1010.67
2018-09-10T11:47:47.774Z,1010.66
2018-09-10T11:48:48.112Z,1010.63
2018-09-10T11:49:49.046Z,1010.68
2018-09-10T11:50:49.560Z,1010.63
2018-09-10T11:51:49.490Z,1010.60
2018-09-10T11:52:49.890Z,1010.55
2018-09-10T11:53:50.292Z,1010.55
2018-09-10T11:54:50.917Z,1010.48
2018-09-10T11:55:50.963Z,1010.42
2018-09-10T11:56:50.971Z,1010.39
2018-09-10T11:57:51.560Z,1010.38
2018-09-10T11:58:51.658Z,1010.37
2018-09-10T11:59:51.771Z,1010.40
2018-09-10T12:00:51.884Z,1010.42
2018-09-10T12:01:51.844Z,1010.36
2018-09-10T12:02:51.890Z,1010.33
2018-09-10T12:03:52.117Z,1010.42
2018-09-10T12:04:52.349Z,1010.34
2018-09-10T12:05:52.396Z,1010.42
2018-09-10T12:06:52.282Z,1010.34
2018-09-10T12:07:52.634Z,1010.29
2018-09-10T12:08:53.016Z,1010.44
2018-09-10T12:09:53.469Z,1010.35
2018-09-10T12:10:53.976Z,1010.31
2018-09-10T12:11:54.205Z,1010.35
2018-09-10T12:12:54.142Z,1010.31
2018-09-10T12:13:54.485Z,1010.31
2018-09-10T12:14:54.821Z,1010.43
2018-09-10T12:15:55.120Z,1010.26
2018-09-10T12:16:55.395Z,1010.38